createdAt,value
2022-12-11T07:48:23.390Z,13.52
2022-12-11T07:50:50.305Z,15.63
2022-12-11T07:53:17.454Z,14.63
2022-12-11T07:55:45.629Z,15.40
2022-12-11T07:58:12.464Z,16.80
2022-12-11T08:00:39.314Z,17.25
2022-12-11T08:03:06.084Z,16.60
2022-12-11T08:05:34.310Z,14.90
2022-12-11T08:08:01.264Z,19.20
2022-12-11T08:10:28.133Z,17.00
2022-12-11T08:12:54.910Z,17.50
2022-12-11T08:15:22.420Z,16.67
2022-12-11T08:17:49.223Z,15.50
2022-12-11T08:20:16.169Z,31.17
2022-12-11T08:22:44.505Z,18.42
2022-12-11T08:25:11.962Z,17.45
2022-12-11T08:27:38.895Z,17.17
2022-12-11T08:30:07.190Z,16.30
2022-12-11T08:32:34.634Z,15.93
2022-12-11T08:35:01.926Z,16.13
2022-12-11T08:37:37.502Z,14.85
2022-12-11T08:42:40.498Z,16.67
2022-12-11T08:45:08.749Z,16.05
2022-12-11T08:47:36.689Z,15.60
2022-12-11T08:50:04.294Z,15.15
2022-12-11T08:52:31.812Z,16.33
2022-12-11T08:54:59.029Z,15.70
2022-12-11T08:57:28.445Z,14.05
2022-12-11T08:59:55.348Z,15.68
2022-12-11T09:02:22.278Z,14.82
2022-12-11T09:04:49.145Z,13.43
2022-12-11T09:07:16.065Z,13.73
2022-12-11T09:09:42.875Z,16.17
2022-12-11T09:12:10.583Z,14.20
2022-12-11T09:14:38.934Z,13.63
2022-12-11T09:17:06.189Z,12.55
2022-12-11T09:19:33.219Z,11.02
2022-12-11T09:22:00.128Z,12.60
2022-12-11T09:24:27.216Z,12.25
2022-12-11T09:26:54.692Z,11.65
2022-12-11T09:29:21.746Z,11.52
2022-12-11T09:31:50.403Z,12.27
2022-12-11T09:34:17.379Z,13.65
2022-12-11T09:36:44.469Z,15.52
2022-12-11T09:39:13.669Z,12.27
2022-12-11T09:41:48.116Z,10.50
2022-12-11T09:44:31.475Z,11.10
2022-12-11T09:47:00.558Z,10.65
2022-12-11T09:49:34.167Z,10.55
2022-12-11T09:52:10.500Z,12.00
2022-12-11T09:54:41.478Z,11.18
2022-12-11T09:57:19.110Z,11.73
2022-12-11T10:00:04.211Z,10.57
2022-12-11T10:02:46.838Z,10.82
2022-12-11T10:05:21.755Z,10.43
2022-12-11T10:07:54.188Z,11.35
2022-12-11T10:10:34.640Z,13.80
2022-12-11T10:13:22.488Z,13.15
2022-12-11T10:15:54.728Z,11.95
2022-12-11T10:18:26.415Z,11.57
2022-12-11T10:20:54.306Z,11.10
2022-12-11T10:23:25.442Z,13.68
2022-12-11T10:25:57.456Z,12.20
2022-12-11T10:28:28.805Z,11.35
2022-12-11T10:31:02.328Z,13.68
2022-12-11T10:33:46.706Z,9.50
2022-12-11T10:36:20.939Z,16.15
2022-12-11T10:38:47.926Z,10.77
2022-12-11T10:41:21.050Z,17.73
2022-12-11T10:43:49.965Z,11.98
2022-12-11T10:46:19.799Z,10.05
2022-12-11T10:51:16.823Z,9.95
2022-12-11T10:53:49.475Z,9.15
2022-12-11T10:56:24.839Z,10.82
2022-12-11T10:58:52.773Z,10.85
2022-12-11T11:01:23.254Z,9.88
2022-12-11T11:03:59.035Z,8.73
2022-12-11T11:06:27.094Z,9.15
2022-12-11T11:08:55.863Z,9.00
2022-12-11T11:11:29.788Z,10.45
2022-12-11T11:17:15.303Z,9.38
2022-12-11T11:19:47.602Z,9.73
2022-12-11T11:22:17.365Z,10.73
2022-12-11T11:27:14.023Z,10.45
2022-12-11T11:29:41.570Z,9.90
2022-12-11T11:32:18.799Z,9.15
2022-12-11T11:34:47.164Z,10.63
2022-12-11T11:37:26.177Z,8.20
2022-12-11T11:39:57.872Z,9.70
2022-12-11T11:42:34.945Z,10.13
2022-12-11T11:45:05.682Z,8.45
2022-12-11T11:47:41.381Z,7.65
2022-12-11T11:50:19.684Z,10.50
2022-12-11T11:52:55.952Z,9.13
2022-12-11T11:55:32.921Z,9.45
2022-12-11T11:58:07.415Z,7.50
2022-12-11T12:00:34.835Z,9.25
2022-12-11T12:03:08.769Z,10.20
2022-12-11T12:05:42.417Z,102.97
2022-12-11T12:08:17.153Z,89.15
2022-12-11T12:10:51.283Z,39.45
2022-12-11T12:13:49.167Z,24.60
2022-12-11T12:16:51.685Z,16.00
2022-12-11T12:19:16.098Z,18.83
2022-12-11T12:21:51.260Z,9.02
2022-12-11T12:24:29.789Z,8.95
2022-12-11T12:27:02.631Z,15.07
2022-12-11T12:29:43.453Z,8.13
2022-12-11T12:32:25.303Z,9.82
2022-12-11T12:35:06.617Z,8.23
2022-12-11T12:37:47.804Z,10.27
2022-12-11T12:40:23.745Z,8.50
2022-12-11T12:42:58.505Z,8.35
2022-12-11T12:45:28.805Z,7.82
2022-12-11T12:47:55.696Z,9.70
2022-12-11T12:50:25.838Z,14.77
2022-12-11T12:52:55.364Z,7.88
2022-12-11T12:55:26.065Z,8.77
2022-12-11T12:57:55.916Z,10.32
2022-12-11T13:00:28.126Z,8.65
2022-12-11T13:02:56.276Z,9.00
2022-12-11T13:05:26.093Z,8.25
2022-12-11T13:07:56.991Z,9.93
2022-12-11T13:10:28.883Z,9.20
2022-12-11T13:12:56.972Z,9.10
2022-12-11T13:15:30.625Z,9.35
2022-12-11T13:17:58.379Z,9.63
2022-12-11T13:20:27.567Z,9.23
2022-12-11T13:23:15.859Z,8.95
2022-12-11T13:25:53.125Z,9.20
2022-12-11T13:28:29.548Z,10.40
2022-12-11T13:30:58.647Z,10.80
2022-12-11T13:33:26.203Z,11.73
2022-12-11T13:36:36.112Z,9.18
2022-12-11T13:39:07.990Z,11.27
2022-12-11T13:41:38.338Z,12.52
2022-12-11T13:44:07.338Z,11.82
2022-12-11T13:46:38.004Z,10.88
2022-12-11T13:49:07.084Z,10.43
2022-12-11T13:51:36.210Z,13.05
2022-12-11T13:54:17.353Z,11.25
2022-12-11T13:56:55.800Z,10.52
2022-12-11T13:59:27.191Z,12.00
2022-12-11T14:01:57.194Z,23.42
2022-12-11T14:04:25.591Z,12.27
2022-12-11T14:06:52.472Z,11.73
2022-12-11T14:09:23.750Z,11.02
2022-12-11T14:11:56.606Z,12.50
2022-12-11T14:14:30.869Z,12.15
2022-12-11T14:16:57.939Z,11.43
2022-12-11T14:19:25.291Z,12.35
2022-12-11T14:21:57.807Z,13.32
2022-12-11T14:24:26.269Z,12.93
2022-12-11T14:26:54.238Z,12.60
2022-12-11T14:29:26.880Z,12.48
2022-12-11T14:31:55.124Z,12.30
2022-12-11T14:34:25.907Z,11.88
2022-12-11T14:36:54.914Z,13.52
2022-12-11T14:39:30.174Z,12.10
2022-12-11T14:42:02.810Z,13.60
2022-12-11T14:44:33.686Z,12.60
2022-12-11T14:47:04.527Z,13.10
2022-12-11T14:49:39.189Z,13.02
2022-12-11T14:52:13.977Z,13.82
2022-12-11T14:54:46.236Z,14.63
2022-12-11T14:57:20.497Z,12.88
2022-12-11T14:59:49.745Z,15.20
2022-12-11T15:02:35.692Z,14.57
2022-12-11T15:05:13.298Z,17.50
2022-12-11T15:07:43.794Z,14.88
2022-12-11T15:10:32.497Z,13.95
2022-12-11T15:12:59.956Z,16.60
2022-12-11T15:15:30.391Z,15.43
2022-12-11T15:17:57.809Z,15.00
2022-12-11T15:20:27.944Z,16.00
2022-12-11T15:22:58.802Z,14.55
2022-12-11T15:25:29.517Z,15.65
2022-12-11T15:27:58.674Z,14.80
2022-12-11T15:30:28.979Z,15.65
2022-12-11T15:33:18.482Z,15.60
2022-12-11T15:35:55.475Z,16.35
2022-12-11T15:38:35.419Z,13.48
2022-12-11T15:41:03.945Z,15.23
2022-12-11T15:43:35.011Z,16.38
2022-12-11T15:46:02.010Z,13.95
2022-12-11T15:48:29.208Z,14.73
2022-12-11T15:50:56.173Z,14.00
2022-12-11T15:53:23.056Z,15.10
2022-12-11T15:55:50.649Z,14.73
2022-12-11T15:58:21.391Z,14.55
2022-12-11T16:00:48.256Z,15.13
2022-12-11T16:03:18.086Z,15.30
2022-12-11T16:08:15.331Z,16.50
2022-12-11T16:10:43.508Z,18.85
2022-12-11T16:13:10.988Z,16.23
2022-12-11T16:15:41.678Z,14.23
2022-12-11T16:18:10.760Z,16.20
2022-12-11T16:20:39.295Z,16.00
2022-12-11T16:23:06.147Z,14.70
2022-12-11T16:25:33.609Z,16.50
2022-12-11T16:28:01.830Z,15.25
2022-12-11T16:30:29.582Z,15.23
2022-12-11T16:33:00.536Z,15.27
2022-12-11T16:35:29.218Z,13.95
2022-12-11T16:37:56.392Z,13.70
2022-12-11T16:40:24.102Z,15.15
2022-12-11T16:42:51.371Z,15.48
2022-12-11T16:45:21.074Z,14.88
2022-12-11T16:47:48.832Z,14.27
2022-12-11T16:50:17.826Z,17.67
2022-12-11T16:52:46.083Z,15.98
2022-12-11T16:55:13.944Z,17.15
2022-12-11T16:57:41.950Z,16.50
2022-12-11T17:00:12.698Z,18.85
2022-12-11T17:02:42.529Z,17.42
2022-12-11T17:05:09.844Z,17.40
2022-12-11T17:07:39.170Z,16.58
2022-12-11T17:10:07.656Z,19.08
2022-12-11T17:12:34.736Z,14.35
2022-12-11T17:15:02.033Z,20.10
2022-12-11T17:17:28.872Z,19.10
2022-12-11T17:19:56.604Z,18.33
2022-12-11T17:22:23.658Z,16.60
2022-12-11T17:24:52.017Z,15.60
2022-12-11T17:27:19.010Z,17.13
2022-12-11T17:29:47.392Z,20.02
2022-12-11T17:32:14.232Z,16.67
2022-12-11T17:34:41.101Z,19.30
2022-12-11T17:37:07.949Z,16.13
2022-12-11T17:39:34.838Z,17.85
2022-12-11T17:42:03.155Z,15.88
2022-12-11T17:44:31.210Z,16.27
2022-12-11T17:46:58.440Z,17.13
2022-12-11T17:49:25.657Z,16.20
2022-12-11T17:51:55.531Z,17.13
2022-12-11T17:54:24.112Z,15.38
2022-12-11T17:56:51.065Z,16.30
2022-12-11T17:59:19.292Z,16.30
2022-12-11T18:01:46.390Z,15.23
2022-12-11T18:04:13.626Z,15.35
2022-12-11T18:06:40.490Z,13.98
2022-12-11T18:09:07.561Z,14.85
2022-12-11T18:11:34.849Z,16.25
2022-12-11T18:14:01.895Z,16.52
2022-12-11T18:17:03.683Z,16.40
2022-12-11T18:19:30.676Z,15.63
2022-12-11T18:21:58.009Z,14.38
2022-12-11T18:24:31.635Z,14.40
2022-12-11T18:26:58.937Z,17.00
2022-12-11T18:29:26.953Z,15.60
2022-12-11T18:31:53.915Z,14.52
2022-12-11T18:34:22.245Z,15.20
2022-12-11T18:36:49.959Z,14.00
2022-12-11T18:39:16.711Z,17.98
2022-12-11T18:41:43.611Z,16.58
2022-12-11T18:44:10.427Z,13.68
2022-12-11T18:46:37.629Z,14.43
2022-12-11T18:49:04.537Z,16.05
2022-12-11T18:51:35.236Z,17.20
2022-12-11T18:54:02.182Z,16.92
2022-12-11T18:56:28.993Z,16.15
2022-12-11T18:58:56.045Z,16.02
2022-12-11T19:01:24.526Z,14.73
2022-12-11T19:03:55.352Z,14.23
2022-12-11T19:06:28.931Z,14.10
2022-12-11T19:08:57.797Z,16.25
2022-12-11T19:11:27.113Z,15.50
2022-12-11T19:13:56.753Z,16.02
2022-12-11T19:16:26.366Z,15.73
2022-12-11T19:18:54.383Z,17.02
2022-12-11T19:21:21.563Z,16.45
2022-12-11T19:23:48.833Z,17.05
2022-12-11T19:26:19.482Z,16.60
2022-12-11T19:28:48.376Z,16.95
2022-12-11T19:31:20.169Z,14.50
2022-12-11T19:33:47.288Z,16.27
2022-12-11T19:36:16.587Z,17.90
2022-12-11T19:38:45.395Z,15.65
2022-12-11T19:41:15.493Z,15.32
2022-12-11T19:43:50.254Z,17.23
2022-12-11T19:46:18.419Z,14.10
2022-12-11T19:48:45.629Z,17.42
2022-12-11T19:51:14.416Z,16.38
2022-12-11T19:53:42.384Z,16.30
2022-12-11T19:56:10.367Z,17.35
2022-12-11T19:58:37.611Z,16.17
2022-12-11T20:01:07.396Z,15.10
2022-12-11T20:03:34.836Z,16.25
2022-12-11T20:06:04.332Z,16.33
2022-12-11T20:08:47.221Z,14.48
2022-12-11T20:11:18.465Z,17.17
2022-12-11T20:13:46.205Z,17.60
2022-12-11T20:16:15.680Z,16.10
2022-12-11T20:18:42.786Z,16.20
2022-12-11T20:21:13.125Z,16.17
2022-12-11T20:23:42.170Z,16.90
2022-12-11T20:26:10.346Z,16.10
2022-12-11T20:28:37.374Z,13.68
2022-12-11T20:31:05.325Z,16.35
2022-12-11T20:33:33.990Z,16.73
2022-12-11T20:36:01.492Z,17.23
2022-12-11T20:38:34.095Z,16.23
2022-12-11T20:41:01.382Z,18.73
2022-12-11T20:43:28.415Z,17.45
2022-12-11T20:45:55.234Z,15.93
2022-12-11T20:48:22.474Z,17.02
2022-12-11T20:50:50.809Z,15.40
2022-12-11T20:53:17.958Z,15.95
2022-12-11T20:55:45.326Z,15.77
2022-12-11T20:58:12.444Z,16.63
2022-12-11T21:00:40.340Z,15.65
2022-12-11T21:03:07.644Z,16.98
2022-12-11T21:05:34.678Z,15.43
2022-12-11T21:08:03.163Z,16.30
2022-12-11T21:10:30.053Z,16.58
2022-12-11T21:12:56.938Z,15.43
2022-12-11T21:15:24.386Z,13.40
2022-12-11T21:17:52.475Z,15.05
2022-12-11T21:20:19.693Z,14.75
2022-12-11T21:22:46.712Z,16.42
2022-12-11T21:25:14.981Z,16.70
2022-12-11T21:27:41.948Z,15.05
2022-12-11T21:30:09.690Z,15.40
2022-12-11T21:32:36.727Z,14.05
2022-12-11T21:35:03.996Z,14.15
2022-12-11T21:37:30.874Z,15.68
2022-12-11T21:39:58.200Z,13.13
2022-12-11T21:42:27.856Z,15.55
2022-12-11T21:47:41.727Z,13.05
2022-12-11T21:50:08.750Z,15.20
2022-12-11T21:52:37.691Z,15.48
2022-12-11T21:55:05.474Z,14.77
2022-12-11T21:57:34.060Z,13.00
2022-12-11T22:00:02.058Z,11.93
2022-12-11T22:02:41.132Z,13.73
2022-12-11T22:05:09.341Z,13.05
2022-12-11T22:07:36.377Z,13.60
2022-12-11T22:10:03.517Z,13.30
2022-12-11T22:12:30.404Z,13.02
2022-12-11T22:14:58.627Z,13.45
2022-12-11T22:17:25.513Z,12.70
2022-12-11T22:19:52.332Z,13.52
2022-12-11T22:22:19.341Z,10.98
2022-12-11T22:24:46.394Z,13.98
2022-12-11T22:27:13.291Z,13.60
2022-12-11T22:29:40.241Z,13.27
2022-12-11T22:32:08.561Z,13.63
2022-12-11T22:34:35.283Z,11.68
2022-12-11T22:37:02.064Z,14.90
2022-12-11T22:39:28.922Z,12.63
2022-12-11T22:41:55.710Z,12.40
2022-12-11T22:44:22.609Z,12.45
2022-12-11T22:46:50.566Z,10.77
2022-12-11T22:49:21.491Z,12.65
2022-12-11T22:51:50.121Z,10.90
2022-12-11T22:54:17.097Z,11.00
2022-12-11T22:56:43.952Z,11.18
2022-12-11T22:59:10.887Z,11.18
2022-12-11T23:01:37.720Z,11.43
2022-12-11T23:04:05.053Z,11.88
2022-12-11T23:06:33.344Z,12.40
2022-12-11T23:09:01.305Z,9.73
2022-12-11T23:11:30.447Z,10.32
2022-12-11T23:13:57.688Z,10.90
2022-12-11T23:16:26.394Z,10.30
2022-12-11T23:18:54.199Z,12.32
2022-12-11T23:21:21.902Z,11.25
2022-12-11T23:23:50.720Z,10.77
2022-12-11T23:26:18.958Z,10.80
2022-12-11T23:28:46.470Z,9.85
2022-12-11T23:31:14.104Z,7.85
2022-12-11T23:33:41.301Z,11.40
2022-12-11T23:36:09.190Z,9.40
2022-12-11T23:38:36.490Z,9.48
2022-12-11T23:41:06.402Z,11.38
2022-12-11T23:46:01.317Z,9.15
2022-12-11T23:48:28.273Z,8.45
2022-12-11T23:50:58.929Z,8.52
2022-12-11T23:53:26.097Z,10.75
2022-12-11T23:55:53.243Z,11.15
2022-12-11T23:58:22.496Z,9.07
